sensor_id;sensor_type;location;lat;lon;timestamp;temperature;humidity
14349;DHT22;7258;50.376;8.742;2023-02-01T00:00:19;4.50;99.90
14349;DHT22;7258;50.376;8.742;2023-02-01T00:02:25;4.60;99.90
14349;DHT22;7258;50.376;8.742;2023-02-01T00:04:38;4.60;99.90
14349;DHT22;7258;50.376;8.742;2023-02-01T00:07:07;4.60;99.90
14349;DHT22;7258;50.376;8.742;2023-02-01T00:09:32;4.60;99.90
14349;DHT22;7258;50.376;8.742;2023-02-01T00:11:55;4.60;99.90
14349;DHT22;7258;50.376;8.742;2023-02-01T00:14:38;4.60;99.90
14349;DHT22;7258;50.376;8.742;2023-02-01T00:16:49;4.60;99.90
14349;DHT22;7258;50.376;8.742;2023-02-01T00:19:24;4.70;99.90
14349;DHT22;7258;50.376;8.742;2023-02-01T00:21:42;4.70;99.90
14349;DHT22;7258;50.376;8.742;2023-02-01T00:24:15;4.70;99.90
14349;DHT22;7258;50.376;8.742;2023-02-01T00:26:59;4.70;99.90
14349;DHT22;7258;50.376;8.742;2023-02-01T00:29:24;4.70;99.90
14349;DHT22;7258;50.376;8.742;2023-02-01T00:34:36;4.70;99.90
14349;DHT22;7258;50.376;8.742;2023-02-01T00:36:51;4.70;99.90
14349;DHT22;7258;50.376;8.742;2023-02-01T00:39:11;4.70;99.90
14349;DHT22;7258;50.376;8.742;2023-02-01T00:41:43;4.70;99.90
14349;DHT22;7258;50.376;8.742;2023-02-01T00:43:57;4.70;99.90
14349;DHT22;7258;50.376;8.742;2023-02-01T00:46:39;4.70;99.90
14349;DHT22;7258;50.376;8.742;2023-02-01T00:49:06;4.70;99.90
14349;DHT22;7258;50.376;8.742;2023-02-01T00:51:48;4.70;99.90
14349;DHT22;7258;50.376;8.742;2023-02-01T00:56:31;4.70;99.90
14349;DHT22;7258;50.376;8.742;2023-02-01T00:58:40;4.70;99.90
14349;DHT22;7258;50.376;8.742;2023-02-01T01:01:07;4.80;99.90
14349;DHT22;7258;50.376;8.742;2023-02-01T01:03:18;4.80;99.90
14349;DHT22;7258;50.376;8.742;2023-02-01T01:05:35;4.70;99.90
14349;DHT22;7258;50.376;8.742;2023-02-01T01:08:05;4.80;99.90
14349;DHT22;7258;50.376;8.742;2023-02-01T01:10:22;4.80;99.90
14349;DHT22;7258;50.376;8.742;2023-02-01T01:12:38;4.80;99.90
14349;DHT22;7258;50.376;8.742;2023-02-01T01:14:56;4.70;99.90
14349;DHT22;7258;50.376;8.742;2023-02-01T01:17:16;4.70;99.90
14349;DHT22;7258;50.376;8.742;2023-02-01T01:19:31;4.70;99.90
14349;DHT22;7258;50.376;8.742;2023-02-01T01:21:52;4.70;99.90
14349;DHT22;7258;50.376;8.742;2023-02-01T01:24:07;4.70;99.90
14349;DHT22;7258;50.376;8.742;2023-02-01T01:26:17;4.80;99.90
14349;DHT22;7258;50.376;8.742;2023-02-01T01:28:32;4.80;99.90
14349;DHT22;7258;50.376;8.742;2023-02-01T01:30:41;4.80;99.90
14349;DHT22;7258;50.376;8.742;2023-02-01T01:32:51;4.80;99.90
14349;DHT22;7258;50.376;8.742;2023-02-01T01:34:59;4.80;99.90
14349;DHT22;7258;50.376;8.742;2023-02-01T01:37:11;4.80;99.90
14349;DHT22;7258;50.376;8.742;2023-02-01T01:39:16;4.80;99.90
14349;DHT22;7258;50.376;8.742;2023-02-01T01:41:25;4.80;99.90
14349;DHT22;7258;50.376;8.742;2023-02-01T01:43:54;4.80;99.90
14349;DHT22;7258;50.376;8.742;2023-02-01T01:46:06;4.80;99.90
14349;DHT22;7258;50.376;8.742;2023-02-01T01:48:23;4.80;99.90
14349;DHT22;7258;50.376;8.742;2023-02-01T01:50:31;4.80;99.90
14349;DHT22;7258;50.376;8.742;2023-02-01T01:52:45;4.80;99.90
14349;DHT22;7258;50.376;8.742;2023-02-01T01:54:51;4.80;99.90
14349;DHT22;7258;50.376;8.742;2023-02-01T01:57:02;4.80;99.90
14349;DHT22;7258;50.376;8.742;2023-02-01T01:59:07;4.80;99.90
14349;DHT22;7258;50.376;8.742;2023-02-01T02:01:12;4.80;99.90
14349;DHT22;7258;50.376;8.742;2023-02-01T02:03:21;4.80;99.90
14349;DHT22;7258;50.376;8.742;2023-02-01T02:05:25;4.80;99.90
14349;DHT22;7258;50.376;8.742;2023-02-01T02:07:35;4.80;99.90
14349;DHT22;7258;50.376;8.742;2023-02-01T02:09:39;4.80;99.90
14349;DHT22;7258;50.376;8.742;2023-02-01T02:12:02;4.80;99.90
14349;DHT22;7258;50.376;8.742;2023-02-01T02:14:07;4.80;99.90
14349;DHT22;7258;50.376;8.742;2023-02-01T02:18:45;4.80;99.90
14349;DHT22;7258;50.376;8.742;2023-02-01T02:21:04;4.80;99.90
14349;DHT22;7258;50.376;8.742;2023-02-01T02:26:28;4.80;99.90
14349;DHT22;7258;50.376;8.742;2023-02-01T02:29:08;4.80;99.90
14349;DHT22;7258;50.376;8.742;2023-02-01T02:31:36;4.80;99.90
14349;DHT22;7258;50.376;8.742;2023-02-01T02:33:52;4.80;99.90
14349;DHT22;7258;50.376;8.742;2023-02-01T02:36:00;4.80;99.90
14349;DHT22;7258;50.376;8.742;2023-02-01T02:38:12;4.80;99.90
14349;DHT22;7258;50.376;8.742;2023-02-01T02:40:20;4.80;99.90
14349;DHT22;7258;50.376;8.742;2023-02-01T02:42:29;4.80;99.90
14349;DHT22;7258;50.376;8.742;2023-02-01T02:45:02;4.80;99.90
14349;DHT22;7258;50.376;8.742;2023-02-01T02:47:27;4.80;99.90
14349;DHT22;7258;50.376;8.742;2023-02-01T02:49:38;4.80;99.90
14349;DHT22;7258;50.376;8.742;2023-02-01T02:51:48;4.80;99.90
14349;DHT22;7258;50.376;8.742;2023-02-01T02:54:13;4.80;99.90
14349;DHT22;7258;50.376;8.742;2023-02-01T02:56:37;4.80;99.90
14349;DHT22;7258;50.376;8.742;2023-02-01T02:58:59;4.70;99.90
14349;DHT22;7258;50.376;8.742;2023-02-01T03:01:19;4.70;99.90
14349;DHT22;7258;50.376;8.742;2023-02-01T03:03:43;4.70;99.90
14349;DHT22;7258;50.376;8.742;2023-02-01T03:06:12;4.70;99.90
14349;DHT22;7258;50.376;8.742;2023-02-01T03:08:17;4.70;99.90
14349;DHT22;7258;50.376;8.742;2023-02-01T03:10:26;4.70;99.90
14349;DHT22;7258;50.376;8.742;2023-02-01T03:12:35;4.80;99.90
14349;DHT22;7258;50.376;8.742;2023-02-01T03:14:59;4.80;99.90
14349;DHT22;7258;50.376;8.742;2023-02-01T03:17:10;4.90;99.90
14349;DHT22;7258;50.376;8.742;2023-02-01T03:19:20;4.90;99.90
14349;DHT22;7258;50.376;8.742;2023-02-01T03:21:28;4.90;99.90
14349;DHT22;7258;50.376;8.742;2023-02-01T03:23:36;4.90;99.90
14349;DHT22;7258;50.376;8.742;2023-02-01T03:25:40;5.00;99.90
14349;DHT22;7258;50.376;8.742;2023-02-01T03:27:50;5.10;99.90
14349;DHT22;7258;50.376;8.742;2023-02-01T03:29:58;5.10;99.90
14349;DHT22;7258;50.376;8.742;2023-02-01T03:32:02;5.10;99.90
14349;DHT22;7258;50.376;8.742;2023-02-01T03:34:05;5.00;99.90
14349;DHT22;7258;50.376;8.742;2023-02-01T03:36:19;5.10;99.90
14349;DHT22;7258;50.376;8.742;2023-02-01T03:38:32;5.10;99.90
14349;DHT22;7258;50.376;8.742;2023-02-01T03:40:37;5.10;99.90
14349;DHT22;7258;50.376;8.742;2023-02-01T03:42:44;5.10;99.90
14349;DHT22;7258;50.376;8.742;2023-02-01T03:44:53;5.20;99.90
14349;DHT22;7258;50.376;8.742;2023-02-01T03:46:59;5.10;99.90
14349;DHT22;7258;50.376;8.742;2023-02-01T03:49:05;5.10;99.90
14349;DHT22;7258;50.376;8.742;2023-02-01T03:51:10;5.10;99.90
14349;DHT22;7258;50.376;8.742;2023-02-01T03:53:17;5.10;99.90
14349;DHT22;7258;50.376;8.742;2023-02-01T03:55:24;5.10;99.90
14349;DHT22;7258;50.376;8.742;2023-02-01T03:57:32;5.10;99.90
14349;DHT22;7258;50.376;8.742;2023-02-01T03:59:38;5.20;99.90
14349;DHT22;7258;50.376;8.742;2023-02-01T04:01:42;5.10;99.90
14349;DHT22;7258;50.376;8.742;2023-02-01T04:03:45;5.10;99.90
14349;DHT22;7258;50.376;8.742;2023-02-01T04:05:48;5.20;99.90
14349;DHT22;7258;50.376;8.742;2023-02-01T04:07:51;5.10;99.90
14349;DHT22;7258;50.376;8.742;2023-02-01T04:09:55;5.10;99.90
14349;DHT22;7258;50.376;8.742;2023-02-01T04:12:00;5.10;99.90
14349;DHT22;7258;50.376;8.742;2023-02-01T04:14:04;5.10;99.90
14349;DHT22;7258;50.376;8.742;2023-02-01T04:16:07;5.00;99.90
14349;DHT22;7258;50.376;8.742;2023-02-01T04:18:10;5.00;99.90
14349;DHT22;7258;50.376;8.742;2023-02-01T04:20:13;5.00;99.90
14349;DHT22;7258;50.376;8.742;2023-02-01T04:22:16;5.00;99.90
14349;DHT22;7258;50.376;8.742;2023-02-01T04:24:19;5.10;99.90
14349;DHT22;7258;50.376;8.742;2023-02-01T04:26:22;5.10;99.90
14349;DHT22;7258;50.376;8.742;2023-02-01T04:28:26;5.10;99.90
14349;DHT22;7258;50.376;8.742;2023-02-01T04:30:29;5.10;99.90
14349;DHT22;7258;50.376;8.742;2023-02-01T04:32:32;5.20;99.90
14349;DHT22;7258;50.376;8.742;2023-02-01T04:34:35;5.10;99.90
14349;DHT22;7258;50.376;8.742;2023-02-01T04:36:38;5.20;99.90
14349;DHT22;7258;50.376;8.742;2023-02-01T04:38:41;5.20;99.90
14349;DHT22;7258;50.376;8.742;2023-02-01T04:40:47;5.20;99.90
14349;DHT22;7258;50.376;8.742;2023-02-01T04:42:50;5.10;99.90
14349;DHT22;7258;50.376;8.742;2023-02-01T04:44:54;5.10;99.90
14349;DHT22;7258;50.376;8.742;2023-02-01T04:46:57;5.10;99.90
14349;DHT22;7258;50.376;8.742;2023-02-01T04:49:00;5.10;99.90
14349;DHT22;7258;50.376;8.742;2023-02-01T04:51:04;5.10;99.90
14349;DHT22;7258;50.376;8.742;2023-02-01T04:53:07;5.20;99.90
14349;DHT22;7258;50.376;8.742;2023-02-01T04:55:10;5.10;99.90
14349;DHT22;7258;50.376;8.742;2023-02-01T04:57:13;5.20;99.90
14349;DHT22;7258;50.376;8.742;2023-02-01T04:59:16;5.20;99.90
14349;DHT22;7258;50.376;8.742;2023-02-01T05:01:22;5.20;99.90
14349;DHT22;7258;50.376;8.742;2023-02-01T05:03:26;5.20;99.90
14349;DHT22;7258;50.376;8.742;2023-02-01T05:05:29;5.10;99.90
14349;DHT22;7258;50.376;8.742;2023-02-01T05:07:32;5.10;99.90
14349;DHT22;7258;50.376;8.742;2023-02-01T05:09:35;5.00;99.90
14349;DHT22;7258;50.376;8.742;2023-02-01T05:11:38;5.00;99.90
14349;DHT22;7258;50.376;8.742;2023-02-01T05:13:59;4.90;99.90
14349;DHT22;7258;50.376;8.742;2023-02-01T05:16:04;4.80;99.90
14349;DHT22;7258;50.376;8.742;2023-02-01T05:18:08;4.80;99.90
14349;DHT22;7258;50.376;8.742;2023-02-01T05:20:11;4.70;99.90
14349;DHT22;7258;50.376;8.742;2023-02-01T05:22:14;4.70;99.90
14349;DHT22;7258;50.376;8.742;2023-02-01T05:24:17;4.70;99.90
14349;DHT22;7258;50.376;8.742;2023-02-01T05:26:22;4.70;99.90
14349;DHT22;7258;50.376;8.742;2023-02-01T05:28:24;4.70;99.90
14349;DHT22;7258;50.376;8.742;2023-02-01T05:30:27;4.60;99.90
14349;DHT22;7258;50.376;8.742;2023-02-01T05:32:31;4.60;99.90
14349;DHT22;7258;50.376;8.742;2023-02-01T05:34:35;4.50;99.90
14349;DHT22;7258;50.376;8.742;2023-02-01T05:36:39;4.50;99.90
14349;DHT22;7258;50.376;8.742;2023-02-01T05:38:42;4.50;99.90
14349;DHT22;7258;50.376;8.742;2023-02-01T05:40:45;4.40;99.90
14349;DHT22;7258;50.376;8.742;2023-02-01T05:42:51;4.40;99.90
14349;DHT22;7258;50.376;8.742;2023-02-01T05:44:54;4.50;99.90
14349;DHT22;7258;50.376;8.742;2023-02-01T05:46:57;4.50;99.90
14349;DHT22;7258;50.376;8.742;2023-02-01T05:49:00;4.70;99.90
14349;DHT22;7258;50.376;8.742;2023-02-01T05:51:04;4.90;99.90
14349;DHT22;7258;50.376;8.742;2023-02-01T05:53:07;4.90;99.90
14349;DHT22;7258;50.376;8.742;2023-02-01T05:55:10;5.00;99.90
14349;DHT22;7258;50.376;8.742;2023-02-01T05:57:14;5.00;99.90
14349;DHT22;7258;50.376;8.742;2023-02-01T05:59:17;5.10;99.90
14349;DHT22;7258;50.376;8.742;2023-02-01T06:01:20;5.00;99.90
14349;DHT22;7258;50.376;8.742;2023-02-01T06:03:23;5.00;99.90
14349;DHT22;7258;50.376;8.742;2023-02-01T06:05:26;4.90;99.90
14349;DHT22;7258;50.376;8.742;2023-02-01T06:07:30;5.00;99.90
14349;DHT22;7258;50.376;8.742;2023-02-01T06:09:34;5.00;99.90
14349;DHT22;7258;50.376;8.742;2023-02-01T06:11:37;5.10;99.90
14349;DHT22;7258;50.376;8.742;2023-02-01T06:13:40;5.10;99.90
14349;DHT22;7258;50.376;8.742;2023-02-01T06:15:43;5.10;99.90
14349;DHT22;7258;50.376;8.742;2023-02-01T06:17:46;5.10;99.90
14349;DHT22;7258;50.376;8.742;2023-02-01T06:19:49;5.10;99.90
14349;DHT22;7258;50.376;8.742;2023-02-01T06:21:52;5.00;99.90
14349;DHT22;7258;50.376;8.742;2023-02-01T06:23:57;5.10;99.90
14349;DHT22;7258;50.376;8.742;2023-02-01T06:26:02;5.10;99.90
14349;DHT22;7258;50.376;8.742;2023-02-01T06:28:05;5.00;99.90
14349;DHT22;7258;50.376;8.742;2023-02-01T06:30:09;5.00;99.90
14349;DHT22;7258;50.376;8.742;2023-02-01T06:32:12;5.00;99.90
14349;DHT22;7258;50.376;8.742;2023-02-01T06:34:15;5.00;99.90
14349;DHT22;7258;50.376;8.742;2023-02-01T06:36:20;5.00;99.90
14349;DHT22;7258;50.376;8.742;2023-02-01T06:38:23;5.00;99.90
14349;DHT22;7258;50.376;8.742;2023-02-01T06:40:29;5.00;99.90
14349;DHT22;7258;50.376;8.742;2023-02-01T06:42:32;5.00;99.90
14349;DHT22;7258;50.376;8.742;2023-02-01T06:44:35;5.00;99.90
14349;DHT22;7258;50.376;8.742;2023-02-01T06:46:38;4.90;99.90
14349;DHT22;7258;50.376;8.742;2023-02-01T06:48:42;4.90;99.90
14349;DHT22;7258;50.376;8.742;2023-02-01T06:50:49;4.90;99.90
14349;DHT22;7258;50.376;8.742;2023-02-01T06:52:55;4.80;99.90
14349;DHT22;7258;50.376;8.742;2023-02-01T06:54:58;4.90;99.90
14349;DHT22;7258;50.376;8.742;2023-02-01T06:57:03;4.90;99.90
14349;DHT22;7258;50.376;8.742;2023-02-01T06:59:07;4.90;99.90
14349;DHT22;7258;50.376;8.742;2023-02-01T07:01:11;4.80;99.90
14349;DHT22;7258;50.376;8.742;2023-02-01T07:03:16;4.80;99.90
14349;DHT22;7258;50.376;8.742;2023-02-01T07:05:19;4.80;99.90
14349;DHT22;7258;50.376;8.742;2023-02-01T07:07:22;4.80;99.90
14349;DHT22;7258;50.376;8.742;2023-02-01T07:09:25;4.80;99.90
14349;DHT22;7258;50.376;8.742;2023-02-01T07:11:32;4.80;99.90
14349;DHT22;7258;50.376;8.742;2023-02-01T07:13:40;4.80;99.90
14349;DHT22;7258;50.376;8.742;2023-02-01T07:15:43;4.90;99.90
14349;DHT22;7258;50.376;8.742;2023-02-01T07:17:48;4.90;99.90
14349;DHT22;7258;50.376;8.742;2023-02-01T07:19:51;5.00;99.90
14349;DHT22;7258;50.376;8.742;2023-02-01T07:21:54;5.10;99.90
14349;DHT22;7258;50.376;8.742;2023-02-01T07:23:58;5.20;99.90
14349;DHT22;7258;50.376;8.742;2023-02-01T07:26:03;5.20;99.90
14349;DHT22;7258;50.376;8.742;2023-02-01T07:28:07;5.30;99.90
14349;DHT22;7258;50.376;8.742;2023-02-01T07:30:12;5.30;99.90
14349;DHT22;7258;50.376;8.742;2023-02-01T07:32:15;5.40;99.90
14349;DHT22;7258;50.376;8.742;2023-02-01T07:34:19;5.40;99.90
14349;DHT22;7258;50.376;8.742;2023-02-01T07:36:23;5.50;99.90
14349;DHT22;7258;50.376;8.742;2023-02-01T07:38:27;5.50;99.90
14349;DHT22;7258;50.376;8.742;2023-02-01T07:40:30;5.60;99.90
14349;DHT22;7258;50.376;8.742;2023-02-01T07:42:34;5.60;99.90
14349;DHT22;7258;50.376;8.742;2023-02-01T07:44:37;5.70;99.90
14349;DHT22;7258;50.376;8.742;2023-02-01T07:46:41;5.70;99.90
14349;DHT22;7258;50.376;8.742;2023-02-01T07:48:45;5.70;99.90
14349;DHT22;7258;50.376;8.742;2023-02-01T07:50:48;5.70;99.90
14349;DHT22;7258;50.376;8.742;2023-02-01T07:52:51;5.80;99.90
14349;DHT22;7258;50.376;8.742;2023-02-01T07:54:56;5.80;99.90
14349;DHT22;7258;50.376;8.742;2023-02-01T07:57:03;5.80;99.90
14349;DHT22;7258;50.376;8.742;2023-02-01T07:59:08;5.80;99.90
14349;DHT22;7258;50.376;8.742;2023-02-01T08:01:14;5.80;99.90
14349;DHT22;7258;50.376;8.742;2023-02-01T08:03:24;5.80;99.90
14349;DHT22;7258;50.376;8.742;2023-02-01T08:05:27;5.90;99.90
14349;DHT22;7258;50.376;8.742;2023-02-01T08:07:30;5.90;99.90
14349;DHT22;7258;50.376;8.742;2023-02-01T08:09:33;5.90;99.90
14349;DHT22;7258;50.376;8.742;2023-02-01T08:11:36;5.90;99.90
14349;DHT22;7258;50.376;8.742;2023-02-01T08:13:43;5.90;99.90
14349;DHT22;7258;50.376;8.742;2023-02-01T08:15:48;5.90;99.90
14349;DHT22;7258;50.376;8.742;2023-02-01T08:17:51;5.90;99.90
14349;DHT22;7258;50.376;8.742;2023-02-01T08:19:57;5.90;99.90
14349;DHT22;7258;50.376;8.742;2023-02-01T08:22:00;5.90;99.90
14349;DHT22;7258;50.376;8.742;2023-02-01T08:24:09;5.90;99.90
14349;DHT22;7258;50.376;8.742;2023-02-01T08:26:16;5.90;99.90
14349;DHT22;7258;50.376;8.742;2023-02-01T08:28:19;6.00;99.90
14349;DHT22;7258;50.376;8.742;2023-02-01T08:30:24;6.00;99.90
14349;DHT22;7258;50.376;8.742;2023-02-01T08:32:29;5.90;99.90
14349;DHT22;7258;50.376;8.742;2023-02-01T08:34:32;5.90;99.90
14349;DHT22;7258;50.376;8.742;2023-02-01T08:36:38;6.00;99.90
14349;DHT22;7258;50.376;8.742;2023-02-01T08:38:42;6.00;99.90
14349;DHT22;7258;50.376;8.742;2023-02-01T08:40:45;6.00;99.90
14349;DHT22;7258;50.376;8.742;2023-02-01T08:42:48;6.00;99.90
14349;DHT22;7258;50.376;8.742;2023-02-01T08:44:54;6.10;99.90
14349;DHT22;7258;50.376;8.742;2023-02-01T08:46:57;6.00;99.90
14349;DHT22;7258;50.376;8.742;2023-02-01T08:49:00;6.10;99.90
14349;DHT22;7258;50.376;8.742;2023-02-01T08:51:05;6.10;99.90
14349;DHT22;7258;50.376;8.742;2023-02-01T08:53:13;6.10;99.90
14349;DHT22;7258;50.376;8.742;2023-02-01T08:55:17;6.10;99.90
14349;DHT22;7258;50.376;8.742;2023-02-01T08:57:20;6.10;99.90
14349;DHT22;7258;50.376;8.742;2023-02-01T08:59:24;6.10;99.90
14349;DHT22;7258;50.376;8.742;2023-02-01T09:01:30;6.10;99.90
14349;DHT22;7258;50.376;8.742;2023-02-01T09:03:33;6.10;99.90
14349;DHT22;7258;50.376;8.742;2023-02-01T09:05:37;6.10;99.90
14349;DHT22;7258;50.376;8.742;2023-02-01T09:07:50;6.10;99.90
14349;DHT22;7258;50.376;8.742;2023-02-01T09:09:55;6.00;99.90
14349;DHT22;7258;50.376;8.742;2023-02-01T09:12:03;6.00;99.90
14349;DHT22;7258;50.376;8.742;2023-02-01T09:14:08;6.00;99.90
14349;DHT22;7258;50.376;8.742;2023-02-01T09:16:11;6.00;99.90
14349;DHT22;7258;50.376;8.742;2023-02-01T09:18:15;5.90;99.90
14349;DHT22;7258;50.376;8.742;2023-02-01T09:20:21;5.90;99.90
14349;DHT22;7258;50.376;8.742;2023-02-01T09:22:26;5.90;99.90
14349;DHT22;7258;50.376;8.742;2023-02-01T09:24:29;5.90;99.90
14349;DHT22;7258;50.376;8.742;2023-02-01T09:26:34;6.00;99.90
14349;DHT22;7258;50.376;8.742;2023-02-01T09:28:38;6.00;99.90
14349;DHT22;7258;50.376;8.742;2023-02-01T09:30:41;6.00;99.90
14349;DHT22;7258;50.376;8.742;2023-02-01T09:32:47;6.10;99.90
14349;DHT22;7258;50.376;8.742;2023-02-01T09:34:51;6.10;99.90
14349;DHT22;7258;50.376;8.742;2023-02-01T09:36:57;6.10;99.90
14349;DHT22;7258;50.376;8.742;2023-02-01T09:39:00;6.10;99.90
14349;DHT22;7258;50.376;8.742;2023-02-01T09:41:10;6.10;99.90
14349;DHT22;7258;50.376;8.742;2023-02-01T09:43:29;6.10;99.90
14349;DHT22;7258;50.376;8.742;2023-02-01T09:45:38;6.10;99.90
14349;DHT22;7258;50.376;8.742;2023-02-01T09:47:48;6.20;99.90
14349;DHT22;7258;50.376;8.742;2023-02-01T09:49:58;6.20;99.90
14349;DHT22;7258;50.376;8.742;2023-02-01T09:52:06;6.20;99.90
14349;DHT22;7258;50.376;8.742;2023-02-01T09:54:14;6.30;99.90
14349;DHT22;7258;50.376;8.742;2023-02-01T09:56:23;6.30;99.90
14349;DHT22;7258;50.376;8.742;2023-02-01T09:58:32;6.30;99.90
14349;DHT22;7258;50.376;8.742;2023-02-01T10:00:38;6.30;99.90
14349;DHT22;7258;50.376;8.742;2023-02-01T10:02:45;6.30;99.90
14349;DHT22;7258;50.376;8.742;2023-02-01T10:04:49;6.30;99.90
14349;DHT22;7258;50.376;8.742;2023-02-01T10:07:01;6.40;99.90
14349;DHT22;7258;50.376;8.742;2023-02-01T10:09:37;6.40;99.90
14349;DHT22;7258;50.376;8.742;2023-02-01T10:12:48;6.40;99.90
14349;DHT22;7258;50.376;8.742;2023-02-01T10:15:03;6.40;99.90
14349;DHT22;7258;50.376;8.742;2023-02-01T10:17:20;6.50;99.90
14349;DHT22;7258;50.376;8.742;2023-02-01T10:19:34;6.60;99.90
14349;DHT22;7258;50.376;8.742;2023-02-01T10:21:50;6.70;99.90
14349;DHT22;7258;50.376;8.742;2023-02-01T10:24:24;6.70;99.90
14349;DHT22;7258;50.376;8.742;2023-02-01T10:26:32;6.70;99.90
14349;DHT22;7258;50.376;8.742;2023-02-01T10:28:37;6.70;99.90
14349;DHT22;7258;50.376;8.742;2023-02-01T10:30:45;6.80;99.90
14349;DHT22;7258;50.376;8.742;2023-02-01T10:32:52;6.70;99.90
14349;DHT22;7258;50.376;8.742;2023-02-01T10:34:59;6.70;99.90
14349;DHT22;7258;50.376;8.742;2023-02-01T10:37:15;6.70;99.90
14349;DHT22;7258;50.376;8.742;2023-02-01T10:39:21;6.70;99.90
14349;DHT22;7258;50.376;8.742;2023-02-01T10:41:31;6.60;99.90
14349;DHT22;7258;50.376;8.742;2023-02-01T10:43:35;6.60;99.90
14349;DHT22;7258;50.376;8.742;2023-02-01T10:45:40;6.60;99.90
14349;DHT22;7258;50.376;8.742;2023-02-01T10:47:46;6.70;99.90
14349;DHT22;7258;50.376;8.742;2023-02-01T10:49:55;6.70;99.90
14349;DHT22;7258;50.376;8.742;2023-02-01T10:52:04;6.70;99.90
14349;DHT22;7258;50.376;8.742;2023-02-01T10:54:14;6.70;99.90
14349;DHT22;7258;50.376;8.742;2023-02-01T10:56:22;6.70;99.90
14349;DHT22;7258;50.376;8.742;2023-02-01T10:58:36;6.70;99.90
14349;DHT22;7258;50.376;8.742;2023-02-01T11:00:47;6.80;99.90
14349;DHT22;7258;50.376;8.742;2023-02-01T11:02:53;6.80;99.90
14349;DHT22;7258;50.376;8.742;2023-02-01T11:05:01;6.80;99.90
14349;DHT22;7258;50.376;8.742;2023-02-01T11:07:12;6.90;99.90
14349;DHT22;7258;50.376;8.742;2023-02-01T11:09:19;6.90;99.90
14349;DHT22;7258;50.376;8.742;2023-02-01T11:11:26;6.90;99.90
14349;DHT22;7258;50.376;8.742;2023-02-01T11:13:36;7.00;99.90
14349;DHT22;7258;50.376;8.742;2023-02-01T11:15:43;7.00;99.90
14349;DHT22;7258;50.376;8.742;2023-02-01T11:17:47;6.90;99.90
14349;DHT22;7258;50.376;8.742;2023-02-01T11:19:59;6.90;99.90
14349;DHT22;7258;50.376;8.742;2023-02-01T11:22:03;6.80;99.90
14349;DHT22;7258;50.376;8.742;2023-02-01T11:24:23;6.80;99.90
14349;DHT22;7258;50.376;8.742;2023-02-01T11:26:27;6.80;99.90
14349;DHT22;7258;50.376;8.742;2023-02-01T11:28:33;6.80;99.90
14349;DHT22;7258;50.376;8.742;2023-02-01T11:30:38;6.90;99.90
14349;DHT22;7258;50.376;8.742;2023-02-01T11:32:46;6.90;99.90
14349;DHT22;7258;50.376;8.742;2023-02-01T11:34:56;6.80;99.90
14349;DHT22;7258;50.376;8.742;2023-02-01T11:37:03;6.80;99.90
14349;DHT22;7258;50.376;8.742;2023-02-01T11:39:10;6.80;99.90
14349;DHT22;7258;50.376;8.742;2023-02-01T11:41:24;6.80;99.90
14349;DHT22;7258;50.376;8.742;2023-02-01T11:43:29;6.80;99.90
14349;DHT22;7258;50.376;8.742;2023-02-01T11:45:33;6.90;99.90
14349;DHT22;7258;50.376;8.742;2023-02-01T11:47:40;6.90;99.90
14349;DHT22;7258;50.376;8.742;2023-02-01T11:49:43;6.90;99.90
14349;DHT22;7258;50.376;8.742;2023-02-01T11:51:56;7.00;99.90
14349;DHT22;7258;50.376;8.742;2023-02-01T11:54:18;7.10;99.90
14349;DHT22;7258;50.376;8.742;2023-02-01T11:56:26;7.10;99.90
14349;DHT22;7258;50.376;8.742;2023-02-01T12:01:32;7.10;99.90
14349;DHT22;7258;50.376;8.742;2023-02-01T12:03:54;7.10;99.90
14349;DHT22;7258;50.376;8.742;2023-02-01T12:06:08;7.20;99.90
14349;DHT22;7258;50.376;8.742;2023-02-01T12:08:49;7.10;99.90
14349;DHT22;7258;50.376;8.742;2023-02-01T12:11:35;7.20;99.90
14349;DHT22;7258;50.376;8.742;2023-02-01T12:13:52;7.30;99.90
14349;DHT22;7258;50.376;8.742;2023-02-01T12:16:06;7.40;99.90
14349;DHT22;7258;50.376;8.742;2023-02-01T12:21:17;7.70;99.90
14349;DHT22;7258;50.376;8.742;2023-02-01T12:23:46;7.90;99.90
14349;DHT22;7258;50.376;8.742;2023-02-01T12:26:03;7.90;99.90
14349;DHT22;7258;50.376;8.742;2023-02-01T12:28:25;7.90;99.90
14349;DHT22;7258;50.376;8.742;2023-02-01T12:30:57;7.90;99.90
14349;DHT22;7258;50.376;8.742;2023-02-01T12:33:09;8.00;99.90
14349;DHT22;7258;50.376;8.742;2023-02-01T12:35:36;8.00;99.90
14349;DHT22;7258;50.376;8.742;2023-02-01T12:37:57;7.90;99.90
14349;DHT22;7258;50.376;8.742;2023-02-01T12:40:19;7.80;99.90
14349;DHT22;7258;50.376;8.742;2023-02-01T12:42:30;7.80;99.90
14349;DHT22;7258;50.376;8.742;2023-02-01T12:44:43;7.80;99.90
14349;DHT22;7258;50.376;8.742;2023-02-01T12:46:52;7.90;99.90
14349;DHT22;7258;50.376;8.742;2023-02-01T12:48:59;7.90;99.90
14349;DHT22;7258;50.376;8.742;2023-02-01T12:51:07;7.80;99.90
14349;DHT22;7258;50.376;8.742;2023-02-01T12:53:18;7.80;99.90
14349;DHT22;7258;50.376;8.742;2023-02-01T12:55:30;7.90;99.90
14349;DHT22;7258;50.376;8.742;2023-02-01T12:57:37;7.90;99.90
14349;DHT22;7258;50.376;8.742;2023-02-01T12:59:47;7.90;99.90
14349;DHT22;7258;50.376;8.742;2023-02-01T13:01:54;7.90;99.90
14349;DHT22;7258;50.376;8.742;2023-02-01T13:04:05;7.80;99.90
14349;DHT22;7258;50.376;8.742;2023-02-01T13:06:16;7.80;99.90
14349;DHT22;7258;50.376;8.742;2023-02-01T13:08:23;7.80;99.90
14349;DHT22;7258;50.376;8.742;2023-02-01T13:10:33;7.80;99.90
14349;DHT22;7258;50.376;8.742;2023-02-01T13:12:43;7.70;99.90
14349;DHT22;7258;50.376;8.742;2023-02-01T13:14:53;7.80;99.90
14349;DHT22;7258;50.376;8.742;2023-02-01T13:17:01;7.70;99.90
14349;DHT22;7258;50.376;8.742;2023-02-01T13:19:12;7.70;99.90
14349;DHT22;7258;50.376;8.742;2023-02-01T13:21:21;7.80;99.90
14349;DHT22;7258;50.376;8.742;2023-02-01T13:23:27;7.80;99.90
14349;DHT22;7258;50.376;8.742;2023-02-01T13:25:38;7.80;99.90
14349;DHT22;7258;50.376;8.742;2023-02-01T13:27:44;7.80;99.90
14349;DHT22;7258;50.376;8.742;2023-02-01T13:29:54;7.80;99.90
14349;DHT22;7258;50.376;8.742;2023-02-01T13:32:09;7.80;99.90
14349;DHT22;7258;50.376;8.742;2023-02-01T13:34:49;7.80;99.90
14349;DHT22;7258;50.376;8.742;2023-02-01T13:37:11;7.80;99.90
14349;DHT22;7258;50.376;8.742;2023-02-01T13:42:11;7.90;99.90
14349;DHT22;7258;50.376;8.742;2023-02-01T13:44:25;8.00;99.90
14349;DHT22;7258;50.376;8.742;2023-02-01T13:46:39;7.90;99.90
14349;DHT22;7258;50.376;8.742;2023-02-01T13:48:48;7.90;99.90
14349;DHT22;7258;50.376;8.742;2023-02-01T13:50:55;7.90;99.90
14349;DHT22;7258;50.376;8.742;2023-02-01T13:53:01;7.90;99.90
14349;DHT22;7258;50.376;8.742;2023-02-01T13:55:24;8.00;99.90
14349;DHT22;7258;50.376;8.742;2023-02-01T13:57:35;8.00;99.90
14349;DHT22;7258;50.376;8.742;2023-02-01T13:59:50;8.00;99.90
14349;DHT22;7258;50.376;8.742;2023-02-01T14:01:55;7.90;99.90
14349;DHT22;7258;50.376;8.742;2023-02-01T14:04:02;7.90;99.90
14349;DHT22;7258;50.376;8.742;2023-02-01T14:06:35;7.90;99.90
14349;DHT22;7258;50.376;8.742;2023-02-01T14:08:42;7.90;99.90
14349;DHT22;7258;50.376;8.742;2023-02-01T14:10:50;7.80;99.90
14349;DHT22;7258;50.376;8.742;2023-02-01T14:13:04;7.80;99.90
14349;DHT22;7258;50.376;8.742;2023-02-01T14:15:27;7.80;99.90
14349;DHT22;7258;50.376;8.742;2023-02-01T14:17:35;7.80;99.90
14349;DHT22;7258;50.376;8.742;2023-02-01T14:19:42;7.80;99.90
14349;DHT22;7258;50.376;8.742;2023-02-01T14:21:50;7.80;99.90
14349;DHT22;7258;50.376;8.742;2023-02-01T14:24:00;7.70;99.90
14349;DHT22;7258;50.376;8.742;2023-02-01T14:26:42;7.70;99.90